Terminal Aerodrome Forecast
Issued by NWS Wilmington, OH

Current Version | Previous Version | Text Only | Print | Product List | Glossary Off
Versions: 1 2 3 4 5 6 7 8 9 10 11 12 13 14 15 16 17 18 19 20

000
FTUS41 KILN 241100
TAFCVG
TAF
KCVG 241139Z 2412/2518 15005KT P6SM OVC080
     FM241400 18007KT P6SM VCSH OVC015
     FM241600 20010KT P6SM BKN015 OVC080
     FM241900 23014G22KT P6SM -SHRA OVC015
     FM242200 25020G35KT P6SM OVC018
     FM250200 24016G26KT P6SM OVC018
     FM250800 25012G20KT P6SM VCSH OVC022
     FM251300 24010KT P6SM OVC022=

USA.gov is the U.S. government's official web portal to all federal, state and local government web resources and services.